sensor_id;sensor_type;location;lat;lon;timestamp;pressure;altitude;pressure_sealevel;temperature;humidity
56831;BME280;42713;42.676;23.352;2024-03-17T00:01:32;94995.47;;;9.29;62.47
56831;BME280;42713;42.676;23.352;2024-03-17T00:03:58;94997.88;;;9.31;62.42
56831;BME280;42713;42.676;23.352;2024-03-17T00:06:24;94999.78;;;9.35;62.35
56831;BME280;42713;42.676;23.352;2024-03-17T00:08:49;94997.19;;;9.35;61.55
56831;BME280;42713;42.676;23.352;2024-03-17T00:11:15;94997.66;;;9.32;61.21
56831;BME280;42713;42.676;23.352;2024-03-17T00:13:41;95001.28;;;9.31;61.75
56831;BME280;42713;42.676;23.352;2024-03-17T00:16:06;94998.09;;;9.29;62.51
56831;BME280;42713;42.676;23.352;2024-03-17T00:18:32;95003.91;;;9.31;62.77
56831;BME280;42713;42.676;23.352;2024-03-17T00:20:57;95001.28;;;9.31;63.31
56831;BME280;42713;42.676;23.352;2024-03-17T00:23:24;94998.69;;;9.31;63.23
56831;BME280;42713;42.676;23.352;2024-03-17T00:25:49;94992.28;;;9.27;62.14
56831;BME280;42713;42.676;23.352;2024-03-17T00:28:16;94997.66;;;9.21;62.61
56831;BME280;42713;42.676;23.352;2024-03-17T00:30:42;94996.75;;;9.15;63.70
56831;BME280;42713;42.676;23.352;2024-03-17T00:33:07;94988.19;;;9.08;63.48
56831;BME280;42713;42.676;23.352;2024-03-17T00:35:33;94995.69;;;9.04;63.62
56831;BME280;42713;42.676;23.352;2024-03-17T00:37:58;94991.94;;;9.00;63.57
56831;BME280;42713;42.676;23.352;2024-03-17T00:40:25;94989.00;;;8.96;63.67
56831;BME280;42713;42.676;23.352;2024-03-17T00:42:50;94993.19;;;8.97;63.76
56831;BME280;42713;42.676;23.352;2024-03-17T00:45:16;94991.03;;;8.94;63.36
56831;BME280;42713;42.676;23.352;2024-03-17T00:47:42;94982.03;;;8.90;63.64
56831;BME280;42713;42.676;23.352;2024-03-17T00:50:08;94980.78;;;8.81;63.59
56831;BME280;42713;42.676;23.352;2024-03-17T00:52:36;94988.38;;;8.82;64.84
56831;BME280;42713;42.676;23.352;2024-03-17T00:55:20;94996.34;;;8.76;65.18
56831;BME280;42713;42.676;23.352;2024-03-17T00:57:46;94991.41;;;8.67;65.65
56831;BME280;42713;42.676;23.352;2024-03-17T01:00:12;94999.56;;;8.59;66.07
56831;BME280;42713;42.676;23.352;2024-03-17T01:02:40;94996.25;;;8.52;66.26
56831;BME280;42713;42.676;23.352;2024-03-17T01:05:05;94998.91;;;8.45;66.97
56831;BME280;42713;42.676;23.352;2024-03-17T01:07:34;94989.59;;;8.37;66.87
56831;BME280;42713;42.676;23.352;2024-03-17T01:10:18;94992.22;;;8.37;67.14
56831;BME280;42713;42.676;23.352;2024-03-17T01:12:47;94990.81;;;8.35;66.96
56831;BME280;42713;42.676;23.352;2024-03-17T01:15:13;94989.09;;;8.29;67.53
56831;BME280;42713;42.676;23.352;2024-03-17T01:17:38;95001.66;;;8.20;67.70
56831;BME280;42713;42.676;23.352;2024-03-17T01:20:04;94992.09;;;8.14;68.07
56831;BME280;42713;42.676;23.352;2024-03-17T01:22:29;94998.31;;;8.13;67.77
56831;BME280;42713;42.676;23.352;2024-03-17T01:24:55;94994.78;;;8.07;68.36
56831;BME280;42713;42.676;23.352;2024-03-17T01:27:20;94987.84;;;8.01;68.37
56831;BME280;42713;42.676;23.352;2024-03-17T01:29:46;94999.28;;;8.00;68.11
56831;BME280;42713;42.676;23.352;2024-03-17T01:32:11;94998.47;;;7.99;67.85
56831;BME280;42713;42.676;23.352;2024-03-17T01:34:37;94994.66;;;8.02;67.81
56831;BME280;42713;42.676;23.352;2024-03-17T01:37:04;95000.66;;;8.02;67.58
56831;BME280;42713;42.676;23.352;2024-03-17T01:39:30;95001.09;;;7.99;67.71
56831;BME280;42713;42.676;23.352;2024-03-17T01:41:58;95004.34;;;7.94;68.10
56831;BME280;42713;42.676;23.352;2024-03-17T01:44:28;94994.44;;;7.85;68.24
56831;BME280;42713;42.676;23.352;2024-03-17T01:46:55;94989.81;;;7.87;68.92
56831;BME280;42713;42.676;23.352;2024-03-17T01:49:21;94995.38;;;7.90;68.68
56831;BME280;42713;42.676;23.352;2024-03-17T01:51:48;95002.97;;;7.92;68.92
56831;BME280;42713;42.676;23.352;2024-03-17T01:54:14;94999.34;;;7.93;68.90
56831;BME280;42713;42.676;23.352;2024-03-17T01:56:40;94998.56;;;7.92;69.06
56831;BME280;42713;42.676;23.352;2024-03-17T01:59:08;94998.00;;;7.90;69.13
56831;BME280;42713;42.676;23.352;2024-03-17T02:01:34;94998.00;;;7.90;69.35
56831;BME280;42713;42.676;23.352;2024-03-17T02:04:00;94987.19;;;7.87;69.48
56831;BME280;42713;42.676;23.352;2024-03-17T02:06:27;94985.16;;;7.89;68.99
56831;BME280;42713;42.676;23.352;2024-03-17T02:08:54;94987.56;;;7.90;69.11
56831;BME280;42713;42.676;23.352;2024-03-17T02:11:46;94995.22;;;7.85;69.24
56831;BME280;42713;42.676;23.352;2024-03-17T02:14:11;94994.88;;;7.82;69.20
56831;BME280;42713;42.676;23.352;2024-03-17T02:16:40;94998.34;;;7.75;69.33
56831;BME280;42713;42.676;23.352;2024-03-17T02:19:05;94997.41;;;7.70;70.07
56831;BME280;42713;42.676;23.352;2024-03-17T02:21:31;95001.91;;;7.62;70.24
56831;BME280;42713;42.676;23.352;2024-03-17T02:23:57;94991.31;;;7.57;70.45
56831;BME280;42713;42.676;23.352;2024-03-17T02:26:25;94999.94;;;7.58;70.45
56831;BME280;42713;42.676;23.352;2024-03-17T02:28:50;94992.31;;;7.56;70.46
56831;BME280;42713;42.676;23.352;2024-03-17T02:31:16;94992.13;;;7.58;70.82
56831;BME280;42713;42.676;23.352;2024-03-17T02:33:43;94994.28;;;7.61;70.12
56831;BME280;42713;42.676;23.352;2024-03-17T02:36:09;94993.72;;;7.59;70.80
56831;BME280;42713;42.676;23.352;2024-03-17T02:38:38;94986.91;;;7.58;70.48
56831;BME280;42713;42.676;23.352;2024-03-17T02:41:23;94987.47;;;7.60;70.62
56831;BME280;42713;42.676;23.352;2024-03-17T02:43:48;94992.69;;;7.60;71.05
56831;BME280;42713;42.676;23.352;2024-03-17T02:46:16;94993.72;;;7.59;71.02
56831;BME280;42713;42.676;23.352;2024-03-17T02:48:44;94987.09;;;7.56;70.65
56831;BME280;42713;42.676;23.352;2024-03-17T02:51:14;94988.28;;;7.60;70.82
56831;BME280;42713;42.676;23.352;2024-03-17T02:53:42;94980.88;;;7.57;70.68
56831;BME280;42713;42.676;23.352;2024-03-17T02:56:08;94983.84;;;7.61;71.10
56831;BME280;42713;42.676;23.352;2024-03-17T02:58:38;94994.09;;;7.62;70.64
56831;BME280;42713;42.676;23.352;2024-03-17T03:01:04;94984.88;;;7.60;71.07
56831;BME280;42713;42.676;23.352;2024-03-17T03:03:33;94977.50;;;7.57;70.49
56831;BME280;42713;42.676;23.352;2024-03-17T03:05:59;94981.69;;;7.58;70.71
56831;BME280;42713;42.676;23.352;2024-03-17T03:08:32;94981.13;;;7.56;71.06
56831;BME280;42713;42.676;23.352;2024-03-17T03:10:59;94978.34;;;7.51;71.37
56831;BME280;42713;42.676;23.352;2024-03-17T03:13:24;94980.94;;;7.51;71.61
56831;BME280;42713;42.676;23.352;2024-03-17T03:15:50;94983.34;;;7.52;71.41
56831;BME280;42713;42.676;23.352;2024-03-17T03:18:16;94983.94;;;7.54;71.30
56831;BME280;42713;42.676;23.352;2024-03-17T03:20:41;94981.53;;;7.53;71.58
56831;BME280;42713;42.676;23.352;2024-03-17T03:23:07;94983.50;;;7.57;70.93
56831;BME280;42713;42.676;23.352;2024-03-17T03:25:32;94980.88;;;7.57;70.95
56831;BME280;42713;42.676;23.352;2024-03-17T03:27:58;94978.09;;;7.59;70.62
56831;BME280;42713;42.676;23.352;2024-03-17T03:30:24;94984.31;;;7.58;70.71
56831;BME280;42713;42.676;23.352;2024-03-17T03:32:50;94981.34;;;7.54;71.17
56831;BME280;42713;42.676;23.352;2024-03-17T03:35:15;94984.50;;;7.56;71.23
56831;BME280;42713;42.676;23.352;2024-03-17T03:37:41;94989.56;;;7.51;70.93
56831;BME280;42713;42.676;23.352;2024-03-17T03:40:10;94984.00;;;7.47;71.33
56831;BME280;42713;42.676;23.352;2024-03-17T03:42:46;94989.22;;;7.47;71.25
56831;BME280;42713;42.676;23.352;2024-03-17T03:45:13;94993.84;;;7.45;71.86
56831;BME280;42713;42.676;23.352;2024-03-17T03:47:42;94988.47;;;7.40;71.48
56831;BME280;42713;42.676;23.352;2024-03-17T03:50:12;94990.28;;;7.40;71.57
56831;BME280;42713;42.676;23.352;2024-03-17T03:52:38;95005.34;;;7.38;71.63
56831;BME280;42713;42.676;23.352;2024-03-17T03:55:07;95002.94;;;7.36;71.88
56831;BME280;42713;42.676;23.352;2024-03-17T03:57:38;95005.19;;;7.32;72.04
56831;BME280;42713;42.676;23.352;2024-03-17T04:00:04;95009.00;;;7.30;71.72
56831;BME280;42713;42.676;23.352;2024-03-17T04:02:40;95007.44;;;7.29;71.49
56831;BME280;42713;42.676;23.352;2024-03-17T04:05:06;95009.22;;;7.28;72.05
56831;BME280;42713;42.676;23.352;2024-03-17T04:07:31;95014.66;;;7.27;71.95
56831;BME280;42713;42.676;23.352;2024-03-17T04:10:16;95006.09;;;7.20;70.98
56831;BME280;42713;42.676;23.352;2024-03-17T04:12:44;95012.75;;;7.15;71.93
56831;BME280;42713;42.676;23.352;2024-03-17T04:15:09;95013.78;;;7.08;71.75
56831;BME280;42713;42.676;23.352;2024-03-17T04:17:36;95021.41;;;7.09;71.82
56831;BME280;42713;42.676;23.352;2024-03-17T04:20:20;95026.44;;;7.04;71.85
56831;BME280;42713;42.676;23.352;2024-03-17T04:22:46;95022.25;;;7.03;72.24
56831;BME280;42713;42.676;23.352;2024-03-17T04:25:14;95032.88;;;7.01;72.51
56831;BME280;42713;42.676;23.352;2024-03-17T04:27:40;95027.69;;;7.01;72.10
56831;BME280;42713;42.676;23.352;2024-03-17T04:30:06;95026.06;;;7.00;71.91
56831;BME280;42713;42.676;23.352;2024-03-17T04:32:33;95030.88;;;7.04;71.94
56831;BME280;42713;42.676;23.352;2024-03-17T04:34:59;95033.28;;;6.98;72.12
56831;BME280;42713;42.676;23.352;2024-03-17T04:37:24;95040.91;;;7.00;72.12
56831;BME280;42713;42.676;23.352;2024-03-17T04:39:50;95049.75;;;6.99;72.21
56831;BME280;42713;42.676;23.352;2024-03-17T04:42:17;95045.53;;;6.98;72.48
56831;BME280;42713;42.676;23.352;2024-03-17T04:44:46;95050.94;;;6.96;72.26
56831;BME280;42713;42.676;23.352;2024-03-17T04:47:12;95046.75;;;6.95;71.95
56831;BME280;42713;42.676;23.352;2024-03-17T04:49:39;95057.56;;;6.99;72.38
56831;BME280;42713;42.676;23.352;2024-03-17T04:52:06;95049.75;;;6.99;72.05
56831;BME280;42713;42.676;23.352;2024-03-17T04:54:33;95061.53;;;7.01;71.84
56831;BME280;42713;42.676;23.352;2024-03-17T04:56:59;95061.75;;;7.00;71.69
56831;BME280;42713;42.676;23.352;2024-03-17T04:59:24;95056.53;;;7.00;71.72
56831;BME280;42713;42.676;23.352;2024-03-17T05:01:50;95068.13;;;7.04;72.16
56831;BME280;42713;42.676;23.352;2024-03-17T05:04:17;95069.94;;;7.04;72.15
56831;BME280;42713;42.676;23.352;2024-03-17T05:06:42;95068.94;;;7.05;71.88
56831;BME280;42713;42.676;23.352;2024-03-17T05:09:13;95075.34;;;7.02;72.50
56831;BME280;42713;42.676;23.352;2024-03-17T05:11:41;95077.94;;;7.02;72.60
56831;BME280;42713;42.676;23.352;2024-03-17T05:14:08;95081.78;;;6.99;72.36
56831;BME280;42713;42.676;23.352;2024-03-17T05:16:33;95086.19;;;6.99;72.34
56831;BME280;42713;42.676;23.352;2024-03-17T05:18:59;95087.19;;;6.98;72.56
56831;BME280;42713;42.676;23.352;2024-03-17T05:21:25;95086.38;;;6.97;72.46
56831;BME280;42713;42.676;23.352;2024-03-17T05:23:52;95086.81;;;6.94;72.96
56831;BME280;42713;42.676;23.352;2024-03-17T05:26:17;95085.41;;;6.92;72.71
56831;BME280;42713;42.676;23.352;2024-03-17T05:28:43;95089.25;;;6.89;72.65
56831;BME280;42713;42.676;23.352;2024-03-17T05:31:09;95098.66;;;6.90;73.16
56831;BME280;42713;42.676;23.352;2024-03-17T05:33:35;95088.25;;;6.90;73.17
56831;BME280;42713;42.676;23.352;2024-03-17T05:36:03;95096.25;;;6.95;73.36
56831;BME280;42713;42.676;23.352;2024-03-17T05:38:30;95097.03;;;6.96;73.76
56831;BME280;42713;42.676;23.352;2024-03-17T05:40:57;95092.19;;;6.99;73.06
56831;BME280;42713;42.676;23.352;2024-03-17T05:43:23;95100.81;;;7.00;73.26
56831;BME280;42713;42.676;23.352;2024-03-17T05:46:00;95093.56;;;7.02;73.11
56831;BME280;42713;42.676;23.352;2024-03-17T05:48:29;95094.16;;;7.04;72.86
56831;BME280;42713;42.676;23.352;2024-03-17T05:50:55;95090.94;;;7.09;73.48
56831;BME280;42713;42.676;23.352;2024-03-17T05:53:23;95082.34;;;7.08;73.45
56831;BME280;42713;42.676;23.352;2024-03-17T05:55:49;95083.50;;;7.12;73.60
56831;BME280;42713;42.676;23.352;2024-03-17T05:58:15;95081.84;;;7.18;72.96
56831;BME280;42713;42.676;23.352;2024-03-17T06:00:41;95091.44;;;7.24;73.17
56831;BME280;42713;42.676;23.352;2024-03-17T06:03:07;95092.38;;;7.30;73.24
56831;BME280;42713;42.676;23.352;2024-03-17T06:05:33;95095.38;;;7.34;73.28
56831;BME280;42713;42.676;23.352;2024-03-17T06:08:18;95095.91;;;7.42;73.38
56831;BME280;42713;42.676;23.352;2024-03-17T06:10:45;95100.91;;;7.44;72.58
56831;BME280;42713;42.676;23.352;2024-03-17T06:13:12;95099.47;;;7.48;72.71
56831;BME280;42713;42.676;23.352;2024-03-17T06:15:41;95106.22;;;7.56;73.14
56831;BME280;42713;42.676;23.352;2024-03-17T06:18:27;95104.94;;;7.65;73.82
56831;BME280;42713;42.676;23.352;2024-03-17T06:20:52;95101.47;;;7.71;73.37
56831;BME280;42713;42.676;23.352;2024-03-17T06:23:18;95101.06;;;7.74;72.19
56831;BME280;42713;42.676;23.352;2024-03-17T06:25:48;95105.56;;;7.86;71.76
56831;BME280;42713;42.676;23.352;2024-03-17T06:28:15;95108.31;;;7.91;71.61
56831;BME280;42713;42.676;23.352;2024-03-17T06:30:46;95113.25;;;7.99;71.62
56831;BME280;42713;42.676;23.352;2024-03-17T06:33:19;95117.03;;;8.03;70.89
56831;BME280;42713;42.676;23.352;2024-03-17T06:35:46;95115.38;;;8.09;70.34
56831;BME280;42713;42.676;23.352;2024-03-17T06:38:12;95111.16;;;8.08;69.57
56831;BME280;42713;42.676;23.352;2024-03-17T06:40:38;95122.25;;;8.03;69.29
56831;BME280;42713;42.676;23.352;2024-03-17T06:43:04;95128.47;;;8.02;69.45
56831;BME280;42713;42.676;23.352;2024-03-17T06:45:30;95118.84;;;8.03;69.63
56831;BME280;42713;42.676;23.352;2024-03-17T06:47:56;95125.59;;;8.10;69.87
56831;BME280;42713;42.676;23.352;2024-03-17T06:50:26;95123.91;;;8.16;69.48
56831;BME280;42713;42.676;23.352;2024-03-17T06:52:54;95120.06;;;8.19;68.07
56831;BME280;42713;42.676;23.352;2024-03-17T06:55:23;95128.06;;;8.24;67.89
56831;BME280;42713;42.676;23.352;2024-03-17T06:57:51;95128.19;;;8.29;68.11
56831;BME280;42713;42.676;23.352;2024-03-17T07:00:16;95123.34;;;8.33;68.37
56831;BME280;42713;42.676;23.352;2024-03-17T07:02:43;95127.13;;;8.37;68.05
56831;BME280;42713;42.676;23.352;2024-03-17T07:05:13;95128.41;;;8.46;67.33
56831;BME280;42713;42.676;23.352;2024-03-17T07:07:42;95118.16;;;8.51;67.06
56831;BME280;42713;42.676;23.352;2024-03-17T07:10:09;95126.47;;;8.60;67.54
56831;BME280;42713;42.676;23.352;2024-03-17T07:12:38;95128.59;;;8.70;68.03
56831;BME280;42713;42.676;23.352;2024-03-17T07:15:05;95119.88;;;8.76;67.91
56831;BME280;42713;42.676;23.352;2024-03-17T07:17:30;95114.13;;;8.86;67.47
56831;BME280;42713;42.676;23.352;2024-03-17T07:19:57;95125.97;;;9.00;67.15
56831;BME280;42713;42.676;23.352;2024-03-17T07:22:23;95123.88;;;9.09;67.41
56831;BME280;42713;42.676;23.352;2024-03-17T07:24:52;95114.78;;;9.12;66.32
56831;BME280;42713;42.676;23.352;2024-03-17T07:27:21;95121.03;;;9.23;65.71
56831;BME280;42713;42.676;23.352;2024-03-17T07:29:46;95118.69;;;9.33;66.16
56831;BME280;42713;42.676;23.352;2024-03-17T07:32:12;95113.25;;;9.34;65.56
56831;BME280;42713;42.676;23.352;2024-03-17T07:34:37;95123.13;;;9.44;65.86
56831;BME280;42713;42.676;23.352;2024-03-17T07:37:03;95129.84;;;9.40;63.96
56831;BME280;42713;42.676;23.352;2024-03-17T07:39:29;95123.34;;;9.31;64.65
56831;BME280;42713;42.676;23.352;2024-03-17T07:41:58;95128.56;;;9.31;64.14
56831;BME280;42713;42.676;23.352;2024-03-17T07:44:25;95119.81;;;9.25;63.86
56831;BME280;42713;42.676;23.352;2024-03-17T07:46:50;95120.50;;;9.21;64.47
56831;BME280;42713;42.676;23.352;2024-03-17T07:49:16;95125.47;;;9.22;64.53
56831;BME280;42713;42.676;23.352;2024-03-17T07:51:41;95128.78;;;9.17;64.74
56831;BME280;42713;42.676;23.352;2024-03-17T07:54:09;95131.97;;;9.19;65.77
56831;BME280;42713;42.676;23.352;2024-03-17T07:56:34;95129.03;;;9.28;66.97
56831;BME280;42713;42.676;23.352;2024-03-17T07:59:00;95134.28;;;9.40;64.63
56831;BME280;42713;42.676;23.352;2024-03-17T08:01:25;95129.72;;;9.35;63.27
56831;BME280;42713;42.676;23.352;2024-03-17T08:03:50;95128.69;;;9.36;63.60
56831;BME280;42713;42.676;23.352;2024-03-17T08:06:21;95132.25;;;9.42;63.86
56831;BME280;42713;42.676;23.352;2024-03-17T08:08:47;95134.28;;;9.52;63.78
56831;BME280;42713;42.676;23.352;2024-03-17T08:11:12;95128.53;;;9.61;63.21
56831;BME280;42713;42.676;23.352;2024-03-17T08:13:39;95117.03;;;9.62;62.68
56831;BME280;42713;42.676;23.352;2024-03-17T08:20:31;95118.41;;;9.77;61.79
56831;BME280;42713;42.676;23.352;2024-03-17T08:27:29;95110.22;;;9.61;68.76
56831;BME280;42713;42.676;23.352;2024-03-17T08:30:09;95091.00;;;9.56;64.76
56831;BME280;42713;42.676;23.352;2024-03-17T08:32:49;95094.19;;;9.58;62.86
56831;BME280;42713;42.676;23.352;2024-03-17T08:48:08;95108.41;;;9.86;60.77
56831;BME280;42713;42.676;23.352;2024-03-17T09:02:31;95059.38;;;9.45;62.83
56831;BME280;42713;42.676;23.352;2024-03-17T09:19:04;95060.50;;;9.97;60.06
56831;BME280;42713;42.676;23.352;2024-03-17T09:38:50;95047.81;;;10.70;56.36
56831;BME280;42713;42.676;23.352;2024-03-17T10:38:06;95012.50;;;12.64;45.27
56831;BME280;42713;42.676;23.352;2024-03-17T10:45:17;95038.34;;;13.00;44.10
56831;BME280;42713;42.676;23.352;2024-03-17T10:52:50;95039.31;;;12.93;36.93
56831;BME280;42713;42.676;23.352;2024-03-17T10:55:26;95042.94;;;12.87;38.55
56831;BME280;42713;42.676;23.352;2024-03-17T10:58:24;95028.03;;;12.98;37.54
56831;BME280;42713;42.676;23.352;2024-03-17T11:00:56;95024.38;;;12.99;37.96
56831;BME280;42713;42.676;23.352;2024-03-17T11:07:20;95033.06;;;13.00;39.91
56831;BME280;42713;42.676;23.352;2024-03-17T11:14:34;94999.44;;;13.02;40.98
56831;BME280;42713;42.676;23.352;2024-03-17T11:17:33;95015.03;;;13.14;41.10
56831;BME280;42713;42.676;23.352;2024-03-17T11:23:57;95008.84;;;13.30;40.18
56831;BME280;42713;42.676;23.352;2024-03-17T11:36:37;94989.28;;;13.48;43.85
56831;BME280;42713;42.676;23.352;2024-03-17T11:39:55;94967.22;;;13.17;42.49
56831;BME280;42713;42.676;23.352;2024-03-17T11:55:26;94978.72;;;13.91;39.70
56831;BME280;42713;42.676;23.352;2024-03-17T11:58:06;94962.94;;;13.96;40.16
56831;BME280;42713;42.676;23.352;2024-03-17T12:05:56;94967.81;;;14.30;39.44
56831;BME280;42713;42.676;23.352;2024-03-17T12:17:30;94959.25;;;13.92;38.72
56831;BME280;42713;42.676;23.352;2024-03-17T12:50:50;94945.84;;;14.04;42.73
56831;BME280;42713;42.676;23.352;2024-03-17T12:53:49;94966.00;;;14.46;42.65
56831;BME280;42713;42.676;23.352;2024-03-17T13:25:42;94942.31;;;13.73;46.39
56831;BME280;42713;42.676;23.352;2024-03-17T14:05:29;94932.88;;;12.64;51.35
56831;BME280;42713;42.676;23.352;2024-03-17T14:45:35;94918.72;;;13.02;52.06
56831;BME280;42713;42.676;23.352;2024-03-17T14:54:53;94931.09;;;13.07;52.31
56831;BME280;42713;42.676;23.352;2024-03-17T14:58:15;94895.72;;;12.82;52.40
56831;BME280;42713;42.676;23.352;2024-03-17T15:00:47;94898.16;;;12.94;51.73
56831;BME280;42713;42.676;23.352;2024-03-17T15:03:12;94899.72;;;12.95;52.40
56831;BME280;42713;42.676;23.352;2024-03-17T15:15:49;94911.88;;;13.01;55.25
56831;BME280;42713;42.676;23.352;2024-03-17T15:18:35;94917.94;;;13.07;55.29
56831;BME280;42713;42.676;23.352;2024-03-17T15:25:47;94896.44;;;13.15;54.31
56831;BME280;42713;42.676;23.352;2024-03-17T16:11:39;94921.16;;;12.76;54.17
56831;BME280;42713;42.676;23.352;2024-03-17T16:14:07;94934.03;;;12.78;54.79
56831;BME280;42713;42.676;23.352;2024-03-17T16:16:34;94931.16;;;12.80;55.14
56831;BME280;42713;42.676;23.352;2024-03-17T16:24:22;94918.59;;;12.87;55.11
56831;BME280;42713;42.676;23.352;2024-03-17T16:47:06;94950.66;;;12.84;56.37
56831;BME280;42713;42.676;23.352;2024-03-17T16:50:26;94929.41;;;12.58;56.38
56831;BME280;42713;42.676;23.352;2024-03-17T17:06:46;94964.22;;;12.43;58.59
56831;BME280;42713;42.676;23.352;2024-03-17T17:09:50;94949.38;;;12.32;57.83
56831;BME280;42713;42.676;23.352;2024-03-17T17:12:21;94963.88;;;12.39;58.63
56831;BME280;42713;42.676;23.352;2024-03-17T17:14:46;94967.38;;;12.45;57.95
56831;BME280;42713;42.676;23.352;2024-03-17T17:17:15;94968.94;;;12.46;58.19
56831;BME280;42713;42.676;23.352;2024-03-17T17:29:07;94982.22;;;12.34;59.51
56831;BME280;42713;42.676;23.352;2024-03-17T17:35:23;94986.78;;;12.17;60.00
56831;BME280;42713;42.676;23.352;2024-03-17T17:38:16;94956.78;;;11.90;60.50
56831;BME280;42713;42.676;23.352;2024-03-17T17:41:17;94965.81;;;11.77;61.17
56831;BME280;42713;42.676;23.352;2024-03-17T17:44:06;94996.88;;;11.86;61.62
56831;BME280;42713;42.676;23.352;2024-03-17T17:51:01;94986.22;;;11.53;62.95
56831;BME280;42713;42.676;23.352;2024-03-17T17:53:52;94971.91;;;11.44;63.69
56831;BME280;42713;42.676;23.352;2024-03-17T17:56:45;95000.41;;;11.57;63.63
56831;BME280;42713;42.676;23.352;2024-03-17T17:59:13;94980.00;;;11.42;64.04
56831;BME280;42713;42.676;23.352;2024-03-17T18:04:54;94993.47;;;11.46;64.17
56831;BME280;42713;42.676;23.352;2024-03-17T19:02:01;95023.25;;;10.88;66.79
56831;BME280;42713;42.676;23.352;2024-03-17T19:17:23;95019.91;;;10.93;66.72
56831;BME280;42713;42.676;23.352;2024-03-17T19:43:48;94992.91;;;10.76;68.71
56831;BME280;42713;42.676;23.352;2024-03-17T19:47:32;95012.44;;;10.85;68.59
56831;BME280;42713;42.676;23.352;2024-03-17T20:03:20;94990.19;;;10.70;68.80
56831;BME280;42713;42.676;23.352;2024-03-17T20:10:02;94994.00;;;10.63;69.13
56831;BME280;42713;42.676;23.352;2024-03-17T20:13:13;94998.09;;;10.58;68.82
56831;BME280;42713;42.676;23.352;2024-03-17T20:32:15;95014.38;;;10.78;68.40
56831;BME280;42713;42.676;23.352;2024-03-17T20:34:44;95009.41;;;10.76;67.62
56831;BME280;42713;42.676;23.352;2024-03-17T20:37:13;95009.72;;;10.80;66.96
56831;BME280;42713;42.676;23.352;2024-03-17T20:39:38;95001.28;;;10.78;66.97
56831;BME280;42713;42.676;23.352;2024-03-17T20:42:05;94995.19;;;10.72;66.47
56831;BME280;42713;42.676;23.352;2024-03-17T20:44:32;94994.00;;;10.63;65.75
56831;BME280;42713;42.676;23.352;2024-03-17T20:46:58;94993.00;;;10.52;65.91
56831;BME280;42713;42.676;23.352;2024-03-17T20:49:24;95003.78;;;10.55;66.56
56831;BME280;42713;42.676;23.352;2024-03-17T20:51:49;95005.78;;;10.48;66.79
56831;BME280;42713;42.676;23.352;2024-03-17T20:54:33;95009.97;;;10.49;66.62
56831;BME280;42713;42.676;23.352;2024-03-17T20:57:03;95010.94;;;10.43;66.90
56831;BME280;42713;42.676;23.352;2024-03-17T20:59:29;95010.94;;;10.43;66.80
56831;BME280;42713;42.676;23.352;2024-03-17T21:02:13;95007.25;;;10.44;66.53
56831;BME280;42713;42.676;23.352;2024-03-17T21:04:38;95005.13;;;10.41;67.13
56831;BME280;42713;42.676;23.352;2024-03-17T21:07:04;95006.47;;;10.43;66.43
56831;BME280;42713;42.676;23.352;2024-03-17T21:09:30;95002.81;;;10.45;66.96
56831;BME280;42713;42.676;23.352;2024-03-17T21:11:56;95010.22;;;10.48;65.96
56831;BME280;42713;42.676;23.352;2024-03-17T21:14:26;95009.97;;;10.49;66.02
56831;BME280;42713;42.676;23.352;2024-03-17T21:16:52;95002.81;;;10.45;66.52
56831;BME280;42713;42.676;23.352;2024-03-17T21:19:18;95006.47;;;10.43;66.68
56831;BME280;42713;42.676;23.352;2024-03-17T21:21:45;94985.53;;;10.32;66.43
56831;BME280;42713;42.676;23.352;2024-03-17T21:24:14;94989.75;;;10.33;66.96
56831;BME280;42713;42.676;23.352;2024-03-17T21:26:39;94991.31;;;10.34;66.56
56831;BME280;42713;42.676;23.352;2024-03-17T21:29:05;94992.59;;;10.31;67.15
56831;BME280;42713;42.676;23.352;2024-03-17T21:31:33;94980.69;;;10.23;66.69
56831;BME280;42713;42.676;23.352;2024-03-17T21:33:58;94995.59;;;10.23;67.34
56831;BME280;42713;42.676;23.352;2024-03-17T21:36:24;94986.63;;;10.19;67.78
56831;BME280;42713;42.676;23.352;2024-03-17T21:38:49;94983.56;;;10.10;67.68
56831;BME280;42713;42.676;23.352;2024-03-17T21:41:36;94983.56;;;10.10;67.42
56831;BME280;42713;42.676;23.352;2024-03-17T21:44:04;94981.19;;;10.08;67.57
56831;BME280;42713;42.676;23.352;2024-03-17T21:46:29;94979.03;;;10.05;68.00
56831;BME280;42713;42.676;23.352;2024-03-17T21:48:55;94980.84;;;10.05;67.80
56831;BME280;42713;42.676;23.352;2024-03-17T21:51:20;94983.69;;;10.03;68.18
56831;BME280;42713;42.676;23.352;2024-03-17T21:53:49;94980.19;;;9.97;68.17
56831;BME280;42713;42.676;23.352;2024-03-17T21:56:14;94987.00;;;9.99;67.64
56831;BME280;42713;42.676;23.352;2024-03-17T21:58:40;94977.47;;;9.92;67.52
56831;BME280;42713;42.676;23.352;2024-03-17T22:01:05;94972.47;;;9.79;67.51
56831;BME280;42713;42.676;23.352;2024-03-17T22:03:31;94989.19;;;9.78;68.06
56831;BME280;42713;42.676;23.352;2024-03-17T22:05:57;94983.19;;;9.65;68.39
56831;BME280;42713;42.676;23.352;2024-03-17T22:08:28;94977.94;;;9.65;68.11
56831;BME280;42713;42.676;23.352;2024-03-17T22:10:54;94992.09;;;9.64;67.80
56831;BME280;42713;42.676;23.352;2024-03-17T22:13:28;94989.91;;;9.61;68.04
56831;BME280;42713;42.676;23.352;2024-03-17T22:16:01;94979.53;;;9.66;67.91
56831;BME280;42713;42.676;23.352;2024-03-17T22:18:28;94984.69;;;9.61;67.77
56831;BME280;42713;42.676;23.352;2024-03-17T22:21:00;94986.03;;;9.64;67.16
56831;BME280;42713;42.676;23.352;2024-03-17T22:23:29;94979.44;;;9.61;66.91
56831;BME280;42713;42.676;23.352;2024-03-17T22:25:59;94976.84;;;9.61;67.21
56831;BME280;42713;42.676;23.352;2024-03-17T22:28:29;94978.19;;;9.64;67.66
56831;BME280;42713;42.676;23.352;2024-03-17T22:31:02;94972.28;;;9.57;68.90
56831;BME280;42713;42.676;23.352;2024-03-17T22:33:32;94968.44;;;9.47;69.27
56831;BME280;42713;42.676;23.352;2024-03-17T22:36:03;94972.66;;;9.48;70.01
56831;BME280;42713;42.676;23.352;2024-03-17T22:38:36;94969.91;;;9.43;69.89